createdAt,value
2022-09-22T00:01:22.583Z,12.68
2022-09-22T00:03:52.100Z,12.66
2022-09-22T00:06:24.493Z,12.66
2022-09-22T00:08:54.553Z,12.67
2022-09-22T00:11:25.365Z,12.67
2022-09-22T00:13:56.035Z,12.63
2022-09-22T00:16:26.913Z,12.61
2022-09-22T00:18:55.436Z,12.58
2022-09-22T00:21:27.811Z,12.55
2022-09-22T00:23:56.431Z,12.54
2022-09-22T00:26:25.571Z,12.51
2022-09-22T00:28:53.447Z,12.53
2022-09-22T00:31:23.911Z,12.53
2022-09-22T00:33:52.778Z,12.52
2022-09-22T00:36:22.825Z,12.49
2022-09-22T00:38:52.613Z,12.48
2022-09-22T00:41:23.294Z,12.47
2022-09-22T00:44:12.668Z,12.43
2022-09-22T00:46:42.075Z,12.39
2022-09-22T00:49:10.521Z,12.37
2022-09-22T00:51:41.980Z,12.39
2022-09-22T00:54:15.679Z,12.35
2022-09-22T00:56:48.705Z,12.36
2022-09-22T00:59:20.157Z,12.38
2022-09-22T01:01:49.212Z,12.41
2022-09-22T01:04:17.316Z,12.46
2022-09-22T01:06:45.302Z,12.48
2022-09-22T01:09:15.636Z,12.52
2022-09-22T01:11:44.261Z,12.58
2022-09-22T01:14:23.198Z,12.63
2022-09-22T01:16:57.915Z,12.67
2022-09-22T01:20:03.346Z,12.65
2022-09-22T01:22:47.616Z,12.56
2022-09-22T01:25:39.934Z,12.57
2022-09-22T01:28:23.989Z,12.55
2022-09-22T01:30:59.207Z,12.48
2022-09-22T01:33:39.242Z,12.54
2022-09-22T01:36:17.619Z,12.63
2022-09-22T01:38:58.584Z,12.67
2022-09-22T01:41:43.259Z,12.59
2022-09-22T01:44:16.602Z,12.61
2022-09-22T01:46:54.120Z,12.60
2022-09-22T01:49:24.050Z,12.67
2022-09-22T01:51:56.315Z,12.71
2022-09-22T01:54:29.678Z,12.79
2022-09-22T01:57:01.777Z,12.79
2022-09-22T01:59:34.919Z,12.81
2022-09-22T02:02:08.271Z,12.78
2022-09-22T02:04:42.016Z,12.77
2022-09-22T02:07:16.815Z,12.64
2022-09-22T02:09:48.398Z,12.47
2022-09-22T02:12:18.624Z,12.33
2022-09-22T02:14:47.061Z,12.30
2022-09-22T02:17:17.390Z,12.35
2022-09-22T02:19:45.670Z,12.51
2022-09-22T02:22:14.142Z,12.58
2022-09-22T02:24:43.659Z,12.63
2022-09-22T02:27:16.486Z,12.64
2022-09-22T02:29:50.766Z,12.59
2022-09-22T02:32:20.844Z,12.40
2022-09-22T02:34:49.409Z,12.35
2022-09-22T02:37:23.471Z,12.30
2022-09-22T02:40:00.901Z,12.30
2022-09-22T02:42:32.141Z,12.39
2022-09-22T02:45:06.476Z,12.44
2022-09-22T02:47:41.470Z,12.48
2022-09-22T02:50:12.246Z,12.53
2022-09-22T02:52:41.159Z,12.63
2022-09-22T02:55:10.980Z,12.61
2022-09-22T02:57:38.836Z,12.61
2022-09-22T03:00:07.940Z,12.55
2022-09-22T03:02:37.364Z,12.55
2022-09-22T03:05:05.826Z,12.60
2022-09-22T03:07:33.855Z,12.64
2022-09-22T03:10:01.768Z,12.67
2022-09-22T03:12:29.701Z,12.72
2022-09-22T03:14:57.646Z,12.70
2022-09-22T03:17:25.571Z,12.62
2022-09-22T03:19:54.862Z,12.56
2022-09-22T03:22:22.798Z,12.54
2022-09-22T03:24:50.702Z,12.51
2022-09-22T03:27:18.761Z,12.47
2022-09-22T03:29:46.678Z,12.47
2022-09-22T03:32:14.573Z,12.45
2022-09-22T03:34:42.481Z,12.41
2022-09-22T03:37:11.770Z,12.37
2022-09-22T03:39:39.741Z,12.37
2022-09-22T03:42:08.546Z,12.33
2022-09-22T03:44:36.576Z,12.16
2022-09-22T03:47:04.918Z,12.06
2022-09-22T03:49:33.029Z,12.05
2022-09-22T03:52:00.978Z,12.08
2022-09-22T03:54:30.502Z,12.07
2022-09-22T03:56:58.875Z,12.05
2022-09-22T03:59:26.792Z,12.04
2022-09-22T04:01:58.229Z,12.03
2022-09-22T04:04:26.472Z,12.00
2022-09-22T04:06:54.400Z,12.00
2022-09-22T04:09:22.388Z,11.96
2022-09-22T04:11:51.683Z,11.89
2022-09-22T04:14:19.630Z,11.89
2022-09-22T04:16:47.563Z,11.89
2022-09-22T04:19:15.599Z,11.86
2022-09-22T04:21:43.489Z,11.87
2022-09-22T04:24:11.532Z,11.90
2022-09-22T04:26:47.787Z,11.91
2022-09-22T04:29:25.861Z,11.84
2022-09-22T04:31:55.064Z,11.83
2022-09-22T04:34:22.985Z,11.81
2022-09-22T04:36:50.976Z,11.83
2022-09-22T04:39:23.051Z,11.86
2022-09-22T04:41:52.379Z,11.86
2022-09-22T04:44:20.333Z,11.81
2022-09-22T04:46:50.284Z,11.77
2022-09-22T04:49:18.910Z,11.75
2022-09-22T04:51:46.908Z,11.78
2022-09-22T04:54:14.921Z,11.75
2022-09-22T04:56:42.855Z,11.72
2022-09-22T04:59:11.904Z,11.69
2022-09-22T05:01:39.923Z,11.66
2022-09-22T05:04:09.385Z,11.66
2022-09-22T05:06:37.466Z,11.67
2022-09-22T05:09:05.824Z,11.63
2022-09-22T05:11:34.352Z,11.59
2022-09-22T05:14:02.237Z,11.57
2022-09-22T05:16:32.330Z,11.60
2022-09-22T05:19:00.407Z,11.58
2022-09-22T05:21:30.056Z,11.59
2022-09-22T05:23:58.091Z,11.62
2022-09-22T05:26:26.160Z,11.66
2022-09-22T05:28:54.264Z,11.69
2022-09-22T05:31:22.270Z,11.61
2022-09-22T05:33:50.345Z,11.61
2022-09-22T05:36:18.377Z,11.59
2022-09-22T05:38:47.685Z,11.55
2022-09-22T05:41:15.580Z,11.58
2022-09-22T05:43:43.503Z,11.67
2022-09-22T05:46:11.554Z,11.70
2022-09-22T05:48:39.542Z,11.76
2022-09-22T05:51:07.412Z,11.77
2022-09-22T05:53:35.330Z,11.79
2022-09-22T05:56:04.869Z,11.76
2022-09-22T05:58:33.127Z,11.71
2022-09-22T06:01:01.103Z,11.64
2022-09-22T06:03:29.082Z,11.65
2022-09-22T06:05:57.012Z,11.66
2022-09-22T06:08:24.959Z,11.51
2022-09-22T06:10:52.907Z,11.36
2022-09-22T06:13:22.214Z,11.48
2022-09-22T06:15:50.102Z,11.55
2022-09-22T06:18:24.133Z,11.58
2022-09-22T06:20:52.590Z,11.65
2022-09-22T06:23:20.492Z,11.73
2022-09-22T06:25:48.466Z,11.76
2022-09-22T06:28:16.814Z,11.82
2022-09-22T06:30:46.908Z,11.85
2022-09-22T06:33:14.808Z,11.87
2022-09-22T06:35:42.904Z,11.88
2022-09-22T06:38:14.859Z,11.91
2022-09-22T06:40:43.620Z,11.90
2022-09-22T06:43:22.676Z,11.92
2022-09-22T06:45:53.248Z,11.94
2022-09-22T06:48:23.967Z,11.97
2022-09-22T06:50:53.703Z,11.98
2022-09-22T06:53:25.566Z,11.93
2022-09-22T06:55:54.958Z,11.87
2022-09-22T06:58:23.334Z,11.92
2022-09-22T07:00:53.809Z,11.95
2022-09-22T07:03:26.387Z,12.03
2022-09-22T07:05:56.576Z,12.09
2022-09-22T07:08:25.865Z,12.14
2022-09-22T07:10:56.266Z,12.19
2022-09-22T07:13:24.526Z,12.27
2022-09-22T07:15:55.397Z,12.26
2022-09-22T07:18:23.355Z,12.20
2022-09-22T07:20:51.255Z,12.25
2022-09-22T07:23:21.086Z,12.25
2022-09-22T07:25:54.184Z,12.26
2022-09-22T07:28:22.594Z,12.33
2022-09-22T07:30:50.545Z,12.41
2022-09-22T07:33:19.855Z,12.45
2022-09-22T07:35:47.843Z,12.50
2022-09-22T07:38:16.349Z,12.46
2022-09-22T07:40:53.006Z,12.46
2022-09-22T07:43:20.923Z,12.60
2022-09-22T07:45:55.670Z,12.69
2022-09-22T07:48:37.620Z,12.79
2022-09-22T07:51:06.656Z,12.87
2022-09-22T07:53:34.728Z,13.02
2022-09-22T07:56:07.402Z,13.17
2022-09-22T07:58:35.445Z,13.18
2022-09-22T08:01:07.849Z,13.20
2022-09-22T08:03:38.116Z,13.36
2022-09-22T08:06:10.378Z,13.42
2022-09-22T08:08:42.592Z,13.31
2022-09-22T08:11:15.053Z,13.33
2022-09-22T08:13:44.415Z,13.48
2022-09-22T08:16:12.364Z,13.55
2022-09-22T08:18:41.712Z,13.59
2022-09-22T08:21:09.772Z,13.60
2022-09-22T08:23:38.569Z,13.64
2022-09-22T08:26:08.523Z,13.74
2022-09-22T08:28:36.747Z,13.75
2022-09-22T08:31:04.818Z,13.76
2022-09-22T08:33:32.974Z,13.73
2022-09-22T08:36:03.680Z,13.75
2022-09-22T08:38:34.092Z,13.80
2022-09-22T08:41:15.165Z,13.91
2022-09-22T08:43:50.409Z,13.97
2022-09-22T08:46:18.433Z,14.02
2022-09-22T08:49:07.554Z,14.21
2022-09-22T08:51:53.488Z,14.10
2022-09-22T08:54:23.251Z,14.11
2022-09-22T08:57:01.895Z,13.95
2022-09-22T08:59:36.027Z,13.93
2022-09-22T09:02:32.478Z,14.02
2022-09-22T09:05:42.002Z,14.18
2022-09-22T09:08:30.410Z,14.30
2022-09-22T09:11:08.058Z,14.35
2022-09-22T09:13:49.215Z,14.37
2022-09-22T09:16:34.240Z,14.48
2022-09-22T09:19:12.129Z,14.53
2022-09-22T09:21:44.899Z,14.62
2022-09-22T09:27:16.657Z,14.91
2022-09-22T09:29:54.100Z,14.89
2022-09-22T09:32:33.229Z,14.94
2022-09-22T09:35:01.515Z,14.94
2022-09-22T09:37:30.474Z,14.91
2022-09-22T09:40:04.552Z,14.94
2022-09-22T09:42:36.812Z,15.01
2022-09-22T09:45:05.790Z,14.98
2022-09-22T09:47:48.448Z,15.06
2022-09-22T09:50:17.164Z,15.12
2022-09-22T09:52:46.192Z,15.15
2022-09-22T09:55:27.338Z,15.27
2022-09-22T09:58:07.754Z,15.30
2022-09-22T10:00:43.194Z,15.20
2022-09-22T10:03:17.499Z,15.17
2022-09-22T10:06:00.239Z,15.33
2022-09-22T10:08:32.210Z,15.49
2022-09-22T10:11:02.057Z,15.55
2022-09-22T10:13:34.224Z,15.64
2022-09-22T10:16:08.527Z,15.65
2022-09-22T10:18:40.480Z,15.56
2022-09-22T10:21:15.878Z,15.54
2022-09-22T10:23:44.880Z,15.62
2022-09-22T10:26:23.001Z,15.67
2022-09-22T10:29:18.280Z,15.68
2022-09-22T10:32:16.112Z,15.78
2022-09-22T10:34:47.242Z,15.97
2022-09-22T10:37:18.944Z,16.16
2022-09-22T10:39:50.657Z,16.26
2022-09-22T10:42:31.956Z,16.09
2022-09-22T10:45:03.660Z,16.13
2022-09-22T10:47:44.529Z,16.12
2022-09-22T10:50:37.355Z,16.08
2022-09-22T10:53:25.639Z,16.11
2022-09-22T10:56:04.201Z,16.20
2022-09-22T10:59:03.815Z,16.27
2022-09-22T11:01:43.396Z,16.43
2022-09-22T11:04:26.988Z,16.63
2022-09-22T11:07:24.338Z,16.76
2022-09-22T11:10:15.087Z,16.82
2022-09-22T11:12:51.377Z,16.89
2022-09-22T11:15:45.863Z,16.79
2022-09-22T11:18:44.290Z,16.86
2022-09-22T11:21:31.299Z,17.00
2022-09-22T11:24:18.921Z,17.14
2022-09-22T11:26:49.703Z,17.22
2022-09-22T11:29:41.795Z,17.24
2022-09-22T11:32:25.955Z,17.27
2022-09-22T11:35:23.319Z,17.40
2022-09-22T11:38:03.745Z,17.42
2022-09-22T11:40:45.040Z,17.48
2022-09-22T11:43:31.484Z,17.64
2022-09-22T11:46:08.766Z,17.59
2022-09-22T11:48:56.197Z,17.56
2022-09-22T11:51:34.816Z,17.58
2022-09-22T11:54:25.928Z,17.62
2022-09-22T11:56:58.005Z,17.53
2022-09-22T11:59:36.613Z,17.60
2022-09-22T12:02:15.307Z,17.69
2022-09-22T12:04:49.220Z,17.75
2022-09-22T12:07:20.382Z,17.77
2022-09-22T12:09:54.071Z,17.78
2022-09-22T12:12:25.315Z,17.91
2022-09-22T12:15:00.199Z,17.96
2022-09-22T12:17:36.775Z,18.05
2022-09-22T12:20:22.998Z,17.76
2022-09-22T12:23:34.785Z,17.67
2022-09-22T12:26:06.350Z,17.79
2022-09-22T12:28:40.521Z,17.85
2022-09-22T12:31:12.699Z,17.86
2022-09-22T12:33:47.845Z,17.90
2022-09-22T12:36:18.223Z,18.02
2022-09-22T12:38:46.954Z,18.02
2022-09-22T12:41:19.455Z,18.13
2022-09-22T12:43:48.756Z,18.20
2022-09-22T12:46:25.852Z,18.17
2022-09-22T12:48:54.015Z,18.31
2022-09-22T12:51:34.300Z,18.47
2022-09-22T12:54:48.017Z,18.57
2022-09-22T12:57:28.217Z,18.63
2022-09-22T12:59:59.756Z,18.56
2022-09-22T13:02:30.992Z,18.65
2022-09-22T13:05:36.976Z,18.69
2022-09-22T13:08:06.339Z,18.71
2022-09-22T13:10:52.635Z,18.73
2022-09-22T13:13:33.813Z,18.61
2022-09-22T13:16:03.634Z,18.73
2022-09-22T13:18:34.502Z,18.93
2022-09-22T13:21:03.988Z,19.13
2022-09-22T13:23:33.401Z,19.39
2022-09-22T13:26:08.562Z,19.61
2022-09-22T13:28:36.559Z,19.74
2022-09-22T13:31:10.886Z,19.47
2022-09-22T13:33:38.889Z,19.52
2022-09-22T13:36:09.792Z,19.55
2022-09-22T13:38:43.816Z,19.32
2022-09-22T13:41:13.679Z,19.36
2022-09-22T13:43:45.554Z,19.50
2022-09-22T13:46:22.572Z,19.71
2022-09-22T13:48:52.447Z,19.60
2022-09-22T13:51:20.431Z,19.78
2022-09-22T13:53:53.549Z,19.94
2022-09-22T13:56:23.500Z,19.99
2022-09-22T13:58:54.471Z,19.83
2022-09-22T14:01:24.346Z,19.81
2022-09-22T14:03:53.887Z,19.65
2022-09-22T14:06:24.082Z,19.89
2022-09-22T14:08:55.124Z,19.89
2022-09-22T14:11:25.118Z,20.02
2022-09-22T14:14:02.672Z,20.06
2022-09-22T14:16:35.747Z,20.00
2022-09-22T14:19:07.651Z,20.00
2022-09-22T14:21:42.763Z,19.93
2022-09-22T14:24:14.007Z,20.17
2022-09-22T14:26:47.566Z,20.13
2022-09-22T14:29:21.331Z,20.31
2022-09-22T14:31:53.679Z,20.47
2022-09-22T14:34:26.483Z,20.74
2022-09-22T14:36:56.279Z,20.79
2022-09-22T14:39:31.907Z,20.70
2022-09-22T14:42:09.250Z,20.69
2022-09-22T14:44:44.258Z,20.94
2022-09-22T14:47:25.808Z,21.07
2022-09-22T14:50:18.814Z,20.76
2022-09-22T14:52:55.836Z,20.63
2022-09-22T14:55:35.949Z,20.50
2022-09-22T14:58:08.599Z,20.38
2022-09-22T15:00:55.492Z,20.42
2022-09-22T15:03:27.781Z,20.77
2022-09-22T15:05:59.940Z,21.00
2022-09-22T15:08:28.894Z,20.80
2022-09-22T15:10:59.456Z,20.97
2022-09-22T15:13:40.068Z,20.90
2022-09-22T15:16:40.431Z,20.64
2022-09-22T15:19:13.178Z,20.73
2022-09-22T15:21:48.499Z,20.50
2022-09-22T15:24:26.196Z,20.38
2022-09-22T15:26:57.342Z,20.52
2022-09-22T15:29:25.283Z,20.81
2022-09-22T15:31:56.019Z,20.76
2022-09-22T15:34:23.979Z,20.78
2022-09-22T15:36:53.226Z,20.78
2022-09-22T15:39:23.185Z,21.00
2022-09-22T15:41:51.745Z,21.25
2022-09-22T15:44:19.732Z,21.42
2022-09-22T15:46:51.396Z,21.52
2022-09-22T15:49:26.200Z,21.55
2022-09-22T15:51:55.960Z,21.36
2022-09-22T15:54:25.133Z,21.23
2022-09-22T15:56:55.097Z,21.15
2022-09-22T15:59:28.125Z,21.07
2022-09-22T16:01:57.219Z,21.27
2022-09-22T16:04:30.104Z,21.37
2022-09-22T16:07:01.228Z,21.47
2022-09-22T16:09:29.473Z,21.33
2022-09-22T16:11:57.469Z,21.10
2022-09-22T16:14:25.444Z,21.18
2022-09-22T16:16:53.456Z,21.40
2022-09-22T16:19:21.434Z,21.33
2022-09-22T16:21:53.006Z,21.38
2022-09-22T16:24:22.747Z,21.62
2022-09-22T16:26:51.372Z,21.42
2022-09-22T16:29:19.307Z,21.38
2022-09-22T16:31:47.464Z,21.40
2022-09-22T16:34:15.400Z,20.96
2022-09-22T16:36:44.645Z,20.93
2022-09-22T16:39:13.975Z,21.02
2022-09-22T16:41:45.761Z,21.01
2022-09-22T16:44:13.896Z,20.95
2022-09-22T16:46:41.901Z,20.96
2022-09-22T16:49:11.750Z,20.96
2022-09-22T16:51:41.921Z,21.06
2022-09-22T16:54:14.322Z,20.97
2022-09-22T16:56:46.151Z,20.96
2022-09-22T16:59:16.687Z,21.10
2022-09-22T17:01:44.938Z,20.98
2022-09-22T17:04:15.894Z,20.95
2022-09-22T17:06:44.578Z,20.91
2022-09-22T17:09:14.111Z,20.92
2022-09-22T17:11:45.963Z,20.77
2022-09-22T17:14:15.642Z,20.75
2022-09-22T17:16:45.018Z,20.57
2022-09-22T17:19:15.542Z,20.23
2022-09-22T17:21:44.113Z,19.97
2022-09-22T17:24:12.039Z,19.62
2022-09-22T17:26:47.439Z,19.32
2022-09-22T17:29:17.916Z,19.08
2022-09-22T17:31:48.237Z,18.94
2022-09-22T17:34:17.179Z,18.81
2022-09-22T17:36:45.905Z,18.54
2022-09-22T17:39:14.072Z,18.39
2022-09-22T17:41:45.573Z,18.22
2022-09-22T17:44:14.733Z,18.08
2022-09-22T17:46:58.136Z,17.96
2022-09-22T17:49:43.612Z,17.82
2022-09-22T17:52:29.708Z,17.72
2022-09-22T17:55:12.004Z,17.63
2022-09-22T17:57:42.147Z,17.57
2022-09-22T18:00:12.331Z,17.54
2022-09-22T18:02:41.984Z,17.50
2022-09-22T18:05:12.131Z,17.47
2022-09-22T18:07:40.700Z,17.45
2022-09-22T18:10:11.112Z,17.38
2022-09-22T18:12:39.481Z,17.29
2022-09-22T18:15:08.431Z,17.24
2022-09-22T18:17:41.682Z,17.17
2022-09-22T18:20:13.143Z,17.12
2022-09-22T18:22:41.751Z,17.06
2022-09-22T18:25:10.470Z,17.06
2022-09-22T18:27:40.024Z,17.05
2022-09-22T18:30:10.080Z,17.03
2022-09-22T18:32:40.200Z,17.02
2022-09-22T18:35:08.930Z,17.03
2022-09-22T18:37:38.286Z,17.00
2022-09-22T18:40:06.849Z,16.98
2022-09-22T18:42:36.696Z,16.94
2022-09-22T18:45:05.306Z,16.93
2022-09-22T18:47:39.722Z,16.85
2022-09-22T18:50:08.709Z,16.72
2022-09-22T18:52:42.218Z,16.61
2022-09-22T18:55:14.096Z,16.59
2022-09-22T18:57:42.038Z,16.57
2022-09-22T19:00:15.024Z,16.50
2022-09-22T19:02:43.090Z,16.46
2022-09-22T19:05:11.312Z,16.46
2022-09-22T19:07:43.824Z,16.42
2022-09-22T19:10:14.400Z,16.38
2022-09-22T19:12:43.130Z,16.45
2022-09-22T19:15:15.252Z,16.42
2022-09-22T19:17:45.154Z,16.39
2022-09-22T19:20:15.043Z,16.39
2022-09-22T19:22:44.842Z,16.36
2022-09-22T19:25:13.218Z,16.35
2022-09-22T19:27:41.275Z,16.35
2022-09-22T19:30:10.143Z,16.33
2022-09-22T19:32:38.148Z,16.29
2022-09-22T19:35:07.822Z,16.25
2022-09-22T19:37:35.797Z,16.19
2022-09-22T19:40:06.551Z,16.16
2022-09-22T19:42:40.112Z,15.82
2022-09-22T19:45:09.075Z,15.81
2022-09-22T19:47:37.665Z,15.80
2022-09-22T19:50:07.910Z,15.78
2022-09-22T19:52:36.686Z,15.73
2022-09-22T19:55:07.120Z,15.70
2022-09-22T19:57:41.133Z,15.72
2022-09-22T20:00:10.563Z,15.72
2022-09-22T20:02:42.147Z,15.74
2022-09-22T20:05:19.664Z,15.75
2022-09-22T20:07:47.808Z,15.75
2022-09-22T20:10:19.029Z,15.76
2022-09-22T20:12:47.262Z,15.75
2022-09-22T20:15:15.825Z,15.70
2022-09-22T20:17:46.206Z,15.71
2022-09-22T20:20:15.703Z,15.67
2022-09-22T20:22:43.864Z,15.69
2022-09-22T20:25:24.158Z,15.62
2022-09-22T20:27:52.429Z,15.50
2022-09-22T20:30:20.378Z,15.43
2022-09-22T20:32:48.762Z,15.43
2022-09-22T20:35:19.071Z,15.42
2022-09-22T20:37:46.986Z,15.42
2022-09-22T20:40:18.615Z,15.45
2022-09-22T20:42:48.776Z,15.42
2022-09-22T20:45:18.274Z,15.38
2022-09-22T20:47:46.248Z,15.34
2022-09-22T20:50:14.338Z,15.35
2022-09-22T20:52:43.550Z,15.39
2022-09-22T20:55:12.344Z,15.43
2022-09-22T20:57:40.892Z,15.41
2022-09-22T21:00:12.933Z,15.42
2022-09-22T21:02:41.113Z,15.37
2022-09-22T21:05:09.660Z,15.34
2022-09-22T21:07:37.830Z,15.33
2022-09-22T21:10:24.359Z,15.33
2022-09-22T21:12:55.063Z,15.37
2022-09-22T21:15:24.582Z,15.23
2022-09-22T21:17:53.006Z,15.18
2022-09-22T21:20:21.614Z,15.12
2022-09-22T21:22:49.594Z,15.09
2022-09-22T21:25:17.743Z,15.01
2022-09-22T21:27:46.424Z,14.98
2022-09-22T21:30:15.058Z,14.99
2022-09-22T21:32:44.386Z,14.97
2022-09-22T21:35:16.666Z,14.92
2022-09-22T21:37:44.824Z,14.91
2022-09-22T21:40:13.354Z,14.90
2022-09-22T21:42:41.442Z,14.90
2022-09-22T21:45:10.475Z,14.94
2022-09-22T21:47:38.369Z,14.95
2022-09-22T21:50:09.323Z,14.90
2022-09-22T21:52:38.578Z,14.88
2022-09-22T21:55:07.789Z,14.88
2022-09-22T21:57:35.876Z,14.86
2022-09-22T22:00:05.748Z,14.85
2022-09-22T22:02:53.674Z,14.81
2022-09-22T22:05:22.998Z,14.73
2022-09-22T22:07:51.004Z,14.74
2022-09-22T22:10:19.242Z,14.74
2022-09-22T22:12:47.268Z,14.75
2022-09-22T22:15:15.635Z,14.76
2022-09-22T22:17:43.613Z,14.72
2022-09-22T22:20:11.523Z,14.73
2022-09-22T22:22:40.821Z,14.70
2022-09-22T22:25:13.754Z,14.70
2022-09-22T22:27:45.530Z,14.64
2022-09-22T22:30:14.454Z,14.64
2022-09-22T22:32:42.454Z,14.66
2022-09-22T22:35:11.672Z,14.68
2022-09-22T22:37:41.032Z,14.71
2022-09-22T22:40:10.099Z,14.72
2022-09-22T22:42:38.293Z,14.73
2022-09-22T22:45:06.943Z,14.71
2022-09-22T22:47:35.007Z,14.63
2022-09-22T22:50:03.013Z,14.58
2022-09-22T22:52:31.304Z,14.59
2022-09-22T22:55:00.575Z,14.55
2022-09-22T22:57:28.967Z,14.54
2022-09-22T22:59:57.327Z,14.50
2022-09-22T23:02:25.713Z,14.49
2022-09-22T23:04:54.329Z,14.46
2022-09-22T23:07:22.301Z,14.44
2022-09-22T23:10:06.117Z,14.40
2022-09-22T23:12:36.334Z,14.36
2022-09-22T23:15:05.054Z,14.33
2022-09-22T23:17:33.493Z,14.30
2022-09-22T23:20:01.419Z,14.28
2022-09-22T23:22:30.680Z,14.24
2022-09-22T23:24:58.753Z,14.29
2022-09-22T23:27:26.893Z,14.40
2022-09-22T23:29:57.229Z,14.34
2022-09-22T23:32:25.616Z,14.27
2022-09-22T23:34:53.643Z,14.21
2022-09-22T23:37:21.682Z,14.21
2022-09-22T23:39:50.382Z,14.19
2022-09-22T23:42:18.303Z,14.21
2022-09-22T23:44:46.388Z,14.17
2022-09-22T23:47:16.357Z,14.19
2022-09-22T23:49:44.461Z,14.19
2022-09-22T23:52:12.579Z,14.15
2022-09-22T23:54:40.462Z,14.13
2022-09-22T23:57:08.389Z,14.13
2022-09-22T23:59:36.290Z,14.13
